Time;durP1;ratioP1;P1;durP2;ratioP2;P2;SDS_P1;SDS_P2;PMS_P1;PMS_P2;Temp;Humidity;BMP_temperature;BMP_pressure;BME280_temperature;BME280_humidity;BME280_pressure;Samples;Min_cycle;Max_cycle;Signal;HPM_P1;HPM_P2
2023/02/25 00:01:58;;;;;;;25.02;5.88;;;4.00;89.50;;;;;;5049461;28;20500;-75
2023/02/25 00:04:27;;;;;;;18.73;5.22;;;4.00;89.50;;;;;;5048193;28;20036;-75
2023/02/25 00:06:54;;;;;;;24.98;4.63;;;3.90;89.50;;;;;;5047614;28;20032;-75
2023/02/25 00:09:20;;;;;;;21.08;5.22;;;3.90;89.50;;;;;;5048995;28;20116;-75
2023/02/25 00:11:46;;;;;;;13.77;4.72;;;3.90;89.50;;;;;;5053218;28;20071;-75
2023/02/25 00:14:12;;;;;;;16.13;4.60;;;3.80;89.60;;;;;;5035120;28;20071;-75
2023/02/25 00:16:40;;;;;;;21.20;6.30;;;3.80;89.60;;;;;;5046341;28;20040;-75
2023/02/25 00:19:06;;;;;;;18.30;4.85;;;3.80;89.60;;;;;;5050932;28;20100;-75
2023/02/25 00:21:32;;;;;;;18.17;5.35;;;3.70;89.70;;;;;;5049123;28;20170;-75
2023/02/25 00:23:57;;;;;;;13.68;4.95;;;3.70;89.70;;;;;;5045434;28;20025;-75
2023/02/25 00:26:23;;;;;;;22.00;4.90;;;3.70;89.80;;;;;;5054118;28;20029;-75
2023/02/25 00:28:49;;;;;;;17.85;5.70;;;3.70;89.90;;;;;;5049114;28;20029;-75
2023/02/25 00:31:21;;;;;;;18.38;4.90;;;3.70;89.90;;;;;;5039633;28;20393;-75
2023/02/25 00:33:48;;;;;;;19.75;4.72;;;3.70;90.00;;;;;;5051460;28;20033;-74
2023/02/25 00:36:20;;;;;;;18.70;4.85;;;3.70;89.90;;;;;;5032687;28;20405;-75
2023/02/25 00:38:55;;;;;;;19.40;5.00;;;3.60;90.00;;;;;;5051029;28;20059;-75
2023/02/25 00:41:25;;;;;;;20.98;5.22;;;3.60;90.00;;;;;;5048613;28;20037;-75
2023/02/25 00:43:59;;;;;;;20.20;5.35;;;3.60;90.00;;;;;;5053037;28;20025;-75
2023/02/25 00:46:26;;;;;;;13.63;4.30;;;3.60;89.90;;;;;;5056307;28;20033;-74
2023/02/25 00:48:52;;;;;;;19.05;5.18;;;3.60;89.90;;;;;;5039070;28;20036;-74
2023/02/25 00:51:23;;;;;;;14.40;5.10;;;3.60;90.00;;;;;;5054450;28;20040;-74
2023/02/25 00:53:52;;;;;;;18.08;4.43;;;3.50;89.90;;;;;;5048732;28;20029;-75
2023/02/25 00:56:18;;;;;;;16.67;5.18;;;3.50;89.90;;;;;;5057573;28;20040;-75
2023/02/25 00:58:46;;;;;;;15.30;4.40;;;3.50;89.80;;;;;;5054262;28;20039;-75
2023/02/25 01:01:32;;;;;;;18.95;4.30;;;3.50;89.80;;;;;;5031563;28;20040;-75
2023/02/25 01:03:58;;;;;;;18.98;4.80;;;3.40;89.80;;;;;;5047112;28;20033;-75
2023/02/25 01:06:26;;;;;;;13.25;3.60;;;3.40;89.70;;;;;;5046453;28;20060;-74
2023/02/25 01:08:52;;;;;;;18.20;3.92;;;3.40;89.70;;;;;;5053987;28;20060;-74
2023/02/25 01:11:29;;;;;;;20.05;3.85;;;3.40;89.60;;;;;;5049730;28;20106;-75
2023/02/25 01:14:00;;;;;;;15.25;3.72;;;3.40;89.60;;;;;;5031124;28;20469;-75
2023/02/25 01:16:29;;;;;;;9.85;2.85;;;3.50;89.60;;;;;;5048259;28;20044;-74
2023/02/25 01:18:57;;;;;;;12.38;3.20;;;3.40;89.50;;;;;;5040283;28;20479;-74
2023/02/25 01:21:27;;;;;;;15.48;3.50;;;3.40;89.50;;;;;;5047690;28;20037;-74
2023/02/25 01:24:02;;;;;;;14.50;3.90;;;3.40;89.40;;;;;;5052681;28;20021;-75
2023/02/25 01:26:31;;;;;;;9.32;3.13;;;3.40;89.40;;;;;;5050539;28;20037;-74
2023/02/25 01:28:57;;;;;;;9.10;2.75;;;3.40;89.50;;;;;;5057513;28;20375;-74
2023/02/25 01:31:27;;;;;;;11.55;3.28;;;3.40;89.50;;;;;;5054290;28;20559;-75
2023/02/25 01:33:58;;;;;;;10.40;3.50;;;3.40;89.50;;;;;;5050306;28;20099;-75
2023/02/25 01:36:25;;;;;;;11.48;4.28;;;3.40;89.50;;;;;;5048509;28;20039;-75
2023/02/25 01:38:50;;;;;;;9.50;3.22;;;3.50;89.60;;;;;;5047661;28;20029;-75
2023/02/25 01:41:16;;;;;;;11.93;2.88;;;3.50;89.50;;;;;;5051211;28;20036;-75
2023/02/25 01:43:42;;;;;;;12.85;2.95;;;3.50;89.50;;;;;;5047315;28;20104;-74
2023/02/25 01:46:08;;;;;;;13.30;3.17;;;3.50;89.50;;;;;;5047300;28;20475;-74
2023/02/25 01:48:38;;;;;;;10.63;2.85;;;3.50;89.50;;;;;;5055950;28;20123;-74
2023/02/25 01:51:09;;;;;;;12.45;3.85;;;3.50;89.50;;;;;;5047302;28;20124;-75
2023/02/25 01:53:45;;;;;;;14.20;3.60;;;3.50;89.50;;;;;;5034563;28;20033;-74
2023/02/25 01:56:16;;;;;;;14.23;3.65;;;3.50;89.50;;;;;;5047607;28;20484;-74
2023/02/25 01:58:43;;;;;;;13.35;3.13;;;3.60;89.40;;;;;;5042968;28;20025;-75
2023/02/25 02:01:15;;;;;;;17.73;4.72;;;3.60;89.60;;;;;;5046015;28;20037;-75
2023/02/25 02:03:42;;;;;;;14.80;3.38;;;3.60;89.60;;;;;;5045359;28;20459;-74
2023/02/25 02:06:22;;;;;;;14.48;2.70;;;3.80;89.30;;;;;;5050723;28;20128;-74
2023/02/25 02:08:48;;;;;;;16.15;3.05;;;3.90;88.90;;;;;;5052141;28;20032;-75
2023/02/25 02:11:15;;;;;;;11.80;2.40;;;4.10;88.40;;;;;;5047976;28;20377;-74
2023/02/25 02:13:45;;;;;;;11.05;2.40;;;4.10;88.00;;;;;;5056902;28;20501;-75
2023/02/25 02:16:25;;;;;;;10.35;2.70;;;4.20;87.30;;;;;;5052962;28;20041;-75
2023/02/25 02:19:21;;;;;;;10.57;2.20;;;4.30;86.70;;;;;;5054795;28;20027;-74
2023/02/25 02:22:08;;;;;;;9.48;2.85;;;4.30;85.70;;;;;;5043489;28;20499;-75
2023/02/25 02:24:50;;;;;;;14.80;3.10;;;4.40;85.30;;;;;;5049082;28;20033;-75
2023/02/25 02:27:27;;;;;;;13.60;3.13;;;4.50;85.50;;;;;;5050885;28;20048;-75
2023/02/25 02:30:13;;;;;;;9.45;2.70;;;4.40;85.90;;;;;;5041229;28;20045;-75
2023/02/25 02:32:57;;;;;;;11.20;2.22;;;4.30;86.10;;;;;;5046950;28;20037;-75
2023/02/25 02:35:36;;;;;;;13.63;3.35;;;4.20;86.40;;;;;;5046343;28;20031;-75
2023/02/25 02:38:47;;;;;;;13.90;2.60;;;4.10;86.70;;;;;;5037196;28;20041;-75
2023/02/25 02:41:25;;;;;;;8.27;2.63;;;4.10;87.00;;;;;;5007581;28;20041;-75
2023/02/25 02:44:05;;;;;;;11.00;3.08;;;3.90;87.30;;;;;;5054941;28;20082;-75
2023/02/25 02:46:52;;;;;;;14.05;2.33;;;3.90;87.50;;;;;;5044209;28;20033;-75
2023/02/25 02:49:28;;;;;;;14.82;2.90;;;3.80;87.70;;;;;;5031563;28;20041;-75
2023/02/25 02:52:13;;;;;;;12.18;2.60;;;3.80;87.90;;;;;;5051691;28;20041;-75
2023/02/25 02:54:42;;;;;;;11.48;3.20;;;3.80;88.10;;;;;;5047864;28;20040;-75
2023/02/25 02:57:11;;;;;;;11.60;2.85;;;3.80;88.10;;;;;;5049380;28;20032;-75
2023/02/25 02:59:45;;;;;;;9.35;2.67;;;3.80;88.10;;;;;;5045102;28;20033;-75
2023/02/25 03:02:34;;;;;;;12.27;2.67;;;3.80;88.10;;;;;;5042806;28;20040;-75
2023/02/25 03:05:08;;;;;;;8.60;2.80;;;3.80;88.20;;;;;;5030337;28;20071;-75
2023/02/25 03:07:48;;;;;;;9.55;2.47;;;3.90;88.20;;;;;;5045721;28;20041;-74
2023/02/25 03:10:19;;;;;;;9.93;2.70;;;3.80;88.20;;;;;;5027398;28;20040;-76
2023/02/25 03:12:44;;;;;;;12.02;3.38;;;3.80;88.20;;;;;;5045316;28;20041;-75
2023/02/25 03:15:10;;;;;;;18.30;3.50;;;3.90;88.10;;;;;;5054165;28;20021;-75
2023/02/25 03:17:47;;;;;;;14.48;2.75;;;3.90;88.30;;;;;;5046855;28;20127;-75
2023/02/25 03:20:23;;;;;;;13.70;3.97;;;3.90;87.50;;;;;;5040607;28;20033;-75
2023/02/25 03:22:50;;;;;;;10.65;2.85;;;4.10;87.00;;;;;;5042636;28;20559;-75
2023/02/25 03:25:46;;;;;;;16.42;2.67;;;4.10;86.70;;;;;;5032934;28;20021;-74
2023/02/25 03:28:30;;;;;;;13.73;3.10;;;4.10;86.40;;;;;;5050739;28;20036;-74
2023/02/25 03:31:08;;;;;;;16.40;3.00;;;4.10;86.30;;;;;;5035077;28;20382;-75
2023/02/25 03:33:46;;;;;;;11.30;2.55;;;4.20;85.90;;;;;;5049068;28;20033;-75
2023/02/25 03:36:20;;;;;;;12.30;2.80;;;4.20;85.70;;;;;;5038452;28;20029;-75
2023/02/25 03:38:53;;;;;;;20.60;3.78;;;4.20;85.60;;;;;;5053305;28;20046;-74
2023/02/25 03:41:20;;;;;;;12.68;2.58;;;4.30;85.50;;;;;;5048608;28;20133;-74
2023/02/25 03:43:49;;;;;;;12.85;2.78;;;4.30;85.70;;;;;;5048597;28;20029;-74
2023/02/25 03:46:18;;;;;;;14.65;3.03;;;4.30;85.70;;;;;;5046254;28;20025;-74
2023/02/25 03:48:44;;;;;;;12.68;3.10;;;4.30;85.90;;;;;;5045653;28;20029;-74
2023/02/25 03:51:13;;;;;;;13.77;3.13;;;4.30;86.10;;;;;;5049946;28;20040;-73
2023/02/25 03:53:39;;;;;;;12.10;3.25;;;4.30;86.20;;;;;;5036152;28;20024;-74
2023/02/25 03:56:07;;;;;;;15.40;3.40;;;4.20;86.30;;;;;;5053656;28;20090;-74
2023/02/25 03:58:35;;;;;;;11.77;3.13;;;4.30;86.50;;;;;;5048693;28;20021;-74
2023/02/25 04:01:05;;;;;;;11.90;3.10;;;4.30;86.60;;;;;;5040655;28;20455;-74
2023/02/25 04:03:31;;;;;;;13.13;3.58;;;4.30;86.80;;;;;;5056794;28;20107;-73
2023/02/25 04:05:57;;;;;;;17.70;3.25;;;4.20;86.80;;;;;;5050125;28;20551;-74
2023/02/25 04:08:23;;;;;;;18.05;4.25;;;4.20;86.90;;;;;;5052069;28;20105;-73
2023/02/25 04:10:48;;;;;;;15.27;3.00;;;4.20;86.90;;;;;;5047299;28;20497;-75
2023/02/25 04:13:15;;;;;;;17.25;3.42;;;4.20;87.00;;;;;;5049362;28;20033;-75
2023/02/25 04:15:41;;;;;;;17.08;2.97;;;4.20;87.00;;;;;;5026628;28;20484;-75
2023/02/25 04:18:07;;;;;;;13.85;3.28;;;4.20;87.10;;;;;;5033677;28;20124;-75
2023/02/25 04:20:33;;;;;;;16.45;3.33;;;4.20;87.00;;;;;;5047985;28;20381;-75
2023/02/25 04:23:00;;;;;;;18.98;3.90;;;4.30;86.80;;;;;;5051901;28;20519;-73
2023/02/25 04:25:26;;;;;;;18.17;3.22;;;4.20;86.70;;;;;;5051422;28;20032;-74
2023/02/25 04:27:52;;;;;;;14.85;3.83;;;4.30;86.70;;;;;;5052050;28;20041;-74
2023/02/25 04:30:18;;;;;;;18.67;3.58;;;4.30;86.50;;;;;;5054255;28;20136;-73
2023/02/25 04:32:44;;;;;;;14.43;3.20;;;4.30;86.50;;;;;;5044807;28;20143;-74
2023/02/25 04:35:12;;;;;;;12.68;3.20;;;4.30;86.40;;;;;;5053656;28;20024;-73
2023/02/25 04:37:40;;;;;;;12.98;3.33;;;4.30;86.10;;;;;;5053568;28;20063;-75
2023/02/25 04:40:11;;;;;;;11.40;3.20;;;4.30;86.10;;;;;;5050588;28;20029;-75
2023/02/25 04:42:37;;;;;;;15.63;3.72;;;4.30;86.20;;;;;;5047757;28;20075;-75
2023/02/25 04:45:04;;;;;;;10.40;2.92;;;4.30;86.10;;;;;;5050862;28;20651;-74
2023/02/25 04:47:30;;;;;;;12.38;2.45;;;4.40;85.90;;;;;;5031568;28;20388;-74
2023/02/25 04:49:56;;;;;;;11.85;2.22;;;4.40;86.00;;;;;;5048336;28;20147;-74
2023/02/25 04:52:22;;;;;;;10.23;3.13;;;4.40;85.90;;;;;;5050810;28;20403;-74
2023/02/25 04:54:47;;;;;;;14.55;2.85;;;4.40;85.50;;;;;;5052852;28;20033;-74
2023/02/25 04:57:13;;;;;;;12.80;2.92;;;4.50;84.60;;;;;;5053590;28;20033;-73
2023/02/25 04:59:39;;;;;;;11.50;2.50;;;4.60;84.10;;;;;;5052325;28;20029;-73
2023/02/25 05:02:06;;;;;;;12.48;2.65;;;4.60;82.50;;;;;;5050737;28;20048;-74
2023/02/25 05:04:33;;;;;;;11.52;2.22;;;4.60;80.10;;;;;;5049497;28;20016;-74
2023/02/25 05:06:59;;;;;;;10.98;2.53;;;4.80;78.00;;;;;;5050962;28;20067;-74
2023/02/25 05:09:25;;;;;;;13.57;2.90;;;4.90;75.70;;;;;;5050729;28;20474;-73
2023/02/25 05:11:50;;;;;;;12.73;2.55;;;5.00;76.30;;;;;;5050829;28;20037;-74
2023/02/25 05:14:16;;;;;;;12.30;2.78;;;5.10;75.50;;;;;;5050911;28;20049;-73
2023/02/25 05:16:42;;;;;;;12.07;2.50;;;5.10;75.50;;;;;;5055280;28;20070;-74
2023/02/25 05:19:08;;;;;;;11.10;2.58;;;5.10;75.90;;;;;;5049159;28;20116;-73
2023/02/25 05:21:34;;;;;;;12.77;2.67;;;5.00;75.80;;;;;;5047434;28;20036;-74
2023/02/25 05:23:59;;;;;;;11.77;3.13;;;5.10;75.60;;;;;;5046113;28;20028;-74
2023/02/25 05:26:25;;;;;;;10.35;3.15;;;5.10;75.70;;;;;;5049642;28;20437;-73
2023/02/25 05:28:56;;;;;;;12.32;2.97;;;5.10;76.00;;;;;;5048663;28;20349;-74
2023/02/25 05:31:23;;;;;;;16.15;3.15;;;5.10;76.30;;;;;;5046518;28;20124;-73
2023/02/25 05:33:49;;;;;;;11.80;2.97;;;5.10;76.90;;;;;;5036644;28;21612;-74
2023/02/25 05:36:15;;;;;;;13.63;2.90;;;5.00;77.30;;;;;;5058966;28;20123;-74
2023/02/25 05:38:42;;;;;;;13.00;2.97;;;5.00;77.50;;;;;;5049617;28;20463;-73
2023/02/25 05:41:09;;;;;;;11.80;2.65;;;5.00;78.00;;;;;;5035441;28;20132;-74
2023/02/25 05:43:36;;;;;;;13.65;3.25;;;5.00;78.40;;;;;;5032183;28;20020;-73
2023/02/25 05:46:03;;;;;;;14.65;3.03;;;5.00;78.80;;;;;;5050096;28;20068;-74
2023/02/25 05:48:31;;;;;;;12.52;3.72;;;4.90;79.30;;;;;;5044960;28;20018;-74
2023/02/25 05:51:09;;;;;;;14.38;3.13;;;4.90;79.70;;;;;;5051014;28;20366;-74
2023/02/25 05:53:36;;;;;;;14.93;3.55;;;4.90;80.30;;;;;;5049292;28;20033;-74
2023/02/25 05:56:11;;;;;;;11.88;2.72;;;4.90;80.40;;;;;;5054828;28;20036;-74
2023/02/25 05:58:37;;;;;;;18.27;3.35;;;4.90;80.60;;;;;;5055159;28;20014;-74
2023/02/25 06:01:12;;;;;;;16.00;4.13;;;4.80;80.80;;;;;;5048268;28;20370;-73
2023/02/25 06:03:42;;;;;;;14.63;3.63;;;4.80;81.20;;;;;;5051134;28;20037;-74
2023/02/25 06:06:12;;;;;;;16.30;3.67;;;4.80;81.40;;;;;;5050079;28;20037;-74
2023/02/25 06:08:38;;;;;;;13.13;2.92;;;4.70;81.50;;;;;;5053624;28;20346;-74
2023/02/25 06:11:07;;;;;;;16.50;3.65;;;4.70;81.80;;;;;;5029962;28;20057;-74
2023/02/25 06:13:34;;;;;;;15.00;3.47;;;4.70;82.00;;;;;;5052452;28;20364;-73
2023/02/25 06:16:03;;;;;;;11.55;3.08;;;4.70;82.30;;;;;;5056474;28;20035;-73
2023/02/25 06:18:29;;;;;;;16.58;3.20;;;4.70;82.50;;;;;;5052576;28;20108;-74
2023/02/25 06:20:54;;;;;;;13.40;3.25;;;4.70;82.80;;;;;;5043980;28;20123;-74
2023/02/25 06:23:20;;;;;;;17.73;3.13;;;4.70;83.10;;;;;;5053377;28;20078;-74
2023/02/25 06:25:45;;;;;;;14.13;3.30;;;4.60;83.20;;;;;;5034848;28;20076;-74
2023/02/25 06:28:11;;;;;;;13.63;3.00;;;4.70;82.00;;;;;;5044266;28;20095;-74
2023/02/25 06:30:40;;;;;;;12.52;2.83;;;4.80;80.80;;;;;;5043978;28;20512;-74
2023/02/25 06:33:05;;;;;;;17.73;3.40;;;4.90;80.50;;;;;;5045100;28;20028;-74
2023/02/25 06:35:34;;;;;;;14.38;3.00;;;5.00;80.30;;;;;;5049397;28;20040;-74
2023/02/25 06:38:00;;;;;;;14.85;2.63;;;4.90;80.20;;;;;;5028831;28;20041;-74
2023/02/25 06:40:27;;;;;;;19.52;3.10;;;4.90;80.40;;;;;;5048506;28;20029;-74
2023/02/25 06:42:53;;;;;;;10.88;3.20;;;4.90;80.70;;;;;;5045432;28;20039;-74
2023/02/25 06:45:19;;;;;;;14.32;3.00;;;4.90;80.80;;;;;;5047769;28;20029;-74
2023/02/25 06:47:44;;;;;;;16.70;2.85;;;5.00;81.00;;;;;;5045905;28;20479;-74
2023/02/25 06:50:11;;;;;;;17.05;3.03;;;4.90;81.10;;;;;;5051371;28;20473;-74
2023/02/25 06:52:36;;;;;;;13.38;3.45;;;4.90;81.50;;;;;;5043938;28;20040;-75
2023/02/25 06:55:05;;;;;;;12.90;3.13;;;4.90;81.90;;;;;;5031707;28;20025;-74
2023/02/25 06:57:31;;;;;;;14.95;3.72;;;4.80;82.30;;;;;;5042004;28;20058;-74
2023/02/25 06:59:57;;;;;;;16.48;3.65;;;4.80;82.70;;;;;;5045055;28;20509;-73
2023/02/25 07:02:23;;;;;;;14.15;2.95;;;4.80;83.20;;;;;;5043985;28;20328;-74
2023/02/25 07:04:51;;;;;;;15.00;3.42;;;4.80;83.50;;;;;;5046326;28;20037;-74
2023/02/25 07:07:17;;;;;;;13.10;3.22;;;4.80;83.70;;;;;;5042361;28;20044;-74
2023/02/25 07:09:42;;;;;;;16.48;3.90;;;4.80;84.00;;;;;;5046451;28;20029;-74
2023/02/25 07:12:08;;;;;;;14.00;3.30;;;4.70;84.10;;;;;;5048415;28;20093;-74
2023/02/25 07:14:34;;;;;;;14.00;3.30;;;4.70;84.40;;;;;;5048547;28;20082;-74
2023/02/25 07:16:59;;;;;;;12.95;2.60;;;4.70;84.40;;;;;;5056917;28;20178;-74
2023/02/25 07:19:25;;;;;;;13.82;2.88;;;4.70;84.50;;;;;;5036759;28;20124;-74
2023/02/25 07:21:50;;;;;;;19.13;4.00;;;4.70;84.70;;;;;;5055914;28;20044;-73
2023/02/25 07:24:16;;;;;;;21.63;3.92;;;4.70;84.60;;;;;;5062518;28;20044;-74
2023/02/25 07:26:42;;;;;;;14.05;4.47;;;4.70;84.50;;;;;;5032299;28;20053;-74
2023/02/25 07:29:07;;;;;;;17.83;4.53;;;4.70;84.60;;;;;;5053289;28;20191;-74
2023/02/25 07:31:33;;;;;;;14.73;3.72;;;4.80;84.50;;;;;;5054141;28;20561;-74
2023/02/25 07:34:02;;;;;;;9.60;3.25;;;4.80;84.50;;;;;;5051574;28;20142;-74
2023/02/25 07:36:31;;;;;;;21.10;4.68;;;4.80;84.60;;;;;;5048801;28;20045;-73
2023/02/25 07:38:58;;;;;;;20.35;3.45;;;4.80;84.70;;;;;;5051326;28;20302;-74
2023/02/25 07:41:24;;;;;;;19.45;4.30;;;4.80;85.10;;;;;;5058479;28;20041;-74
2023/02/25 07:43:49;;;;;;;18.08;4.18;;;4.80;85.50;;;;;;5052294;28;20159;-74
2023/02/25 07:46:15;;;;;;;14.35;3.75;;;4.90;85.50;;;;;;5051472;28;20067;-74
2023/02/25 07:48:41;;;;;;;16.10;3.97;;;4.90;85.30;;;;;;5061149;28;20149;-74
2023/02/25 07:51:16;;;;;;;14.90;4.13;;;5.00;85.30;;;;;;5049009;28;20064;-74
2023/02/25 07:53:42;;;;;;;19.73;3.95;;;5.00;85.20;;;;;;5053811;28;20087;-74
2023/02/25 07:56:08;;;;;;;15.00;3.63;;;5.00;84.90;;;;;;5053974;28;20045;-74
2023/02/25 07:58:34;;;;;;;15.73;3.60;;;5.10;84.80;;;;;;5049566;28;20032;-75
2023/02/25 08:01:05;;;;;;;13.50;3.58;;;5.10;84.90;;;;;;5051422;28;20401;-75
2023/02/25 08:03:31;;;;;;;16.08;4.13;;;5.10;85.00;;;;;;5049272;28;20022;-74
2023/02/25 08:05:58;;;;;;;12.60;4.25;;;5.10;85.00;;;;;;5027537;28;20572;-74
2023/02/25 08:08:23;;;;;;;16.58;6.35;;;5.20;85.30;;;;;;5043550;28;20047;-74
2023/02/25 08:10:49;;;;;;;14.73;5.60;;;5.30;85.20;;;;;;5041711;28;20040;-77
2023/02/25 08:13:15;;;;;;;12.98;4.55;;;5.50;85.30;;;;;;5043627;28;20151;-76
2023/02/25 08:15:43;;;;;;;17.60;4.05;;;5.60;85.40;;;;;;5040350;28;20105;-78
2023/02/25 08:18:10;;;;;;;19.05;4.00;;;5.60;85.00;;;;;;5038487;28;20476;-78
2023/02/25 08:20:36;;;;;;;18.75;4.53;;;5.70;85.10;;;;;;5039954;28;20095;-77
2023/02/25 08:23:02;;;;;;;17.48;5.25;;;5.70;85.30;;;;;;5030767;28;20049;-78
2023/02/25 08:25:28;;;;;;;17.42;4.10;;;5.90;85.40;;;;;;5028699;28;21378;-77
2023/02/25 08:27:54;;;;;;;20.83;4.78;;;6.00;85.30;;;;;;5042257;28;20029;-78
2023/02/25 08:30:19;;;;;;;24.90;5.00;;;6.10;85.00;;;;;;5043555;28;20084;-79
2023/02/25 08:32:46;;;;;;;14.15;4.07;;;6.10;84.70;;;;;;5039136;28;20025;-78
2023/02/25 08:35:12;;;;;;;18.77;4.63;;;6.30;84.70;;;;;;5041550;28;20059;-77
2023/02/25 08:37:38;;;;;;;18.70;4.85;;;6.50;85.00;;;;;;5042951;28;20041;-77
2023/02/25 08:40:09;;;;;;;21.75;5.63;;;6.70;84.50;;;;;;5041276;28;20021;-76
2023/02/25 08:42:35;;;;;;;22.27;6.35;;;6.80;83.40;;;;;;5048120;28;20033;-73
2023/02/25 08:45:01;;;;;;;23.20;6.07;;;6.70;81.70;;;;;;5033834;28;20419;-78
2023/02/25 08:47:27;;;;;;;16.02;4.20;;;6.90;81.50;;;;;;5047683;28;20040;-78
2023/02/25 08:49:53;;;;;;;15.43;3.78;;;6.90;81.50;;;;;;5036823;28;20040;-74
2023/02/25 08:52:19;;;;;;;11.98;3.53;;;6.90;80.30;;;;;;5043242;28;20445;-79
2023/02/25 08:54:44;;;;;;;13.70;3.00;;;6.60;80.10;;;;;;5026014;28;20175;-79
2023/02/25 08:57:10;;;;;;;10.45;2.58;;;6.50;80.50;;;;;;5041487;28;20025;-76
2023/02/25 08:59:36;;;;;;;10.98;2.75;;;6.50;81.10;;;;;;5037248;28;20047;-78
2023/02/25 09:02:11;;;;;;;14.88;3.03;;;6.50;80.70;;;;;;5025105;28;20409;-78
2023/02/25 09:04:37;;;;;;;10.90;2.70;;;6.60;80.80;;;;;;5040411;28;20025;-79
2023/02/25 09:07:03;;;;;;;16.55;3.42;;;6.60;80.70;;;;;;5031330;28;20391;-75
2023/02/25 09:09:28;;;;;;;13.10;3.45;;;6.80;80.30;;;;;;5031814;28;20100;-81
2023/02/25 09:11:54;;;;;;;14.88;3.35;;;6.90;79.50;;;;;;5034905;28;20030;-81
2023/02/25 09:14:20;;;;;;;9.77;3.45;;;7.10;79.50;;;;;;5038931;28;20095;-77
2023/02/25 09:16:46;;;;;;;16.27;3.10;;;7.10;77.40;;;;;;5040620;28;20041;-87
2023/02/25 09:19:14;;;;;;;13.00;2.95;;;7.20;75.90;;;;;;5045217;28;20084;-84
2023/02/25 09:21:40;;;;;;;10.95;2.97;;;7.40;76.10;;;;;;5040960;28;20037;-81
2023/02/25 09:24:07;;;;;;;14.25;3.10;;;7.60;75.80;;;;;;5037963;28;20029;-81
2023/02/25 09:26:33;;;;;;;13.10;2.35;;;7.60;76.20;;;;;;5041650;28;20033;-81
2023/02/25 09:29:00;;;;;;;10.23;2.42;;;7.60;75.60;;;;;;5042853;28;20033;-83
2023/02/25 09:31:26;;;;;;;11.38;2.38;;;7.50;76.10;;;;;;5036699;28;20115;-84
2023/02/25 09:33:51;;;;;;;14.40;3.00;;;7.20;76.30;;;;;;5038429;28;20034;-82
2023/02/25 09:36:19;;;;;;;12.32;2.53;;;7.10;77.10;;;;;;5041141;28;20041;-82
2023/02/25 09:38:47;;;;;;;13.68;2.95;;;7.10;78.00;;;;;;5039686;28;20783;-83
2023/02/25 09:41:47;;;;;;;13.25;2.83;;;7.20;77.40;;;;;;5039451;28;20037;-82
2023/02/25 09:44:18;;;;;;;15.77;3.13;;;7.40;77.50;;;;;;5041350;28;20362;-80
2023/02/25 09:46:49;;;;;;;13.90;2.90;;;7.80;77.00;;;;;;5039867;28;20481;-81
2023/02/25 09:49:41;;;;;;;18.27;4.07;;;7.80;75.90;;;;;;5026445;28;20037;-79
2023/02/25 09:52:23;;;;;;;12.48;3.22;;;8.00;75.30;;;;;;5039234;28;20041;-78
2023/02/25 09:55:14;;;;;;;10.27;3.00;;;8.00;74.30;;;;;;5041232;28;20033;-82
2023/02/25 09:57:40;;;;;;;11.02;2.72;;;7.30;76.40;;;;;;5041049;28;20120;-82
2023/02/25 10:00:18;;;;;;;15.18;2.78;;;7.10;77.60;;;;;;5027759;28;20025;-83
2023/02/25 10:02:57;;;;;;;11.48;3.28;;;7.10;79.20;;;;;;5040453;28;20037;-81
2023/02/25 10:05:43;;;;;;;15.88;2.75;;;7.00;79.00;;;;;;5043977;28;20025;-82
2023/02/25 10:08:26;;;;;;;17.65;3.15;;;7.20;79.30;;;;;;5046141;28;20024;-83
2023/02/25 10:11:40;;;;;;;18.77;3.92;;;7.50;79.10;;;;;;5029788;28;20916;-83
2023/02/25 10:14:54;;;;;;;16.13;3.53;;;7.80;78.60;;;;;;4969021;28;20551;-83
2023/02/25 10:17:57;;;;;;;12.60;3.25;;;8.20;76.90;;;;;;4979851;28;20078;-82
2023/02/25 10:20:34;;;;;;;18.05;3.97;;;8.20;74.90;;;;;;4968357;28;20112;-82
2023/02/25 10:23:09;;;;;;;12.40;3.00;;;8.10;73.20;;;;;;5038768;28;20486;-76
2023/02/25 10:25:38;;;;;;;;;;;8.20;73.30;;;;;;5043461;28;20138;-72
2023/02/25 10:28:12;;;;;;;16.33;3.80;;;8.20;72.30;;;;;;5026691;28;19908;-75
2023/02/25 10:30:58;;;;;;;20.63;3.80;;;8.30;71.60;;;;;;5044988;28;20052;-72
2023/02/25 10:33:26;;;;;;;13.23;2.75;;;8.40;72.40;;;;;;5041947;28;20040;-79
2023/02/25 10:36:08;;;;;;;15.13;3.15;;;8.60;68.70;;;;;;5037910;28;20033;-77
2023/02/25 10:38:44;;;;;;;12.82;3.08;;;8.60;65.90;;;;;;5029439;28;20540;-79
2023/02/25 10:41:10;;;;;;;13.75;3.15;;;8.40;64.20;;;;;;5025291;28;20571;-79
2023/02/25 10:43:36;;;;;;;12.98;3.22;;;8.30;66.00;;;;;;5043155;28;20069;-81
2023/02/25 10:46:14;;;;;;;14.35;3.13;;;8.40;66.20;;;;;;5052556;28;20067;-79
2023/02/25 10:48:42;;;;;;;13.55;4.78;;;8.60;67.20;;;;;;5045972;28;20029;-79
2023/02/25 10:51:13;;;;;;;13.13;4.88;;;8.40;64.60;;;;;;5048056;28;20775;-80
2023/02/25 10:53:59;;;;;;;11.75;4.18;;;8.40;63.80;;;;;;5047558;28;20111;-78
2023/02/25 10:56:27;;;;;;;16.55;3.70;;;8.50;64.20;;;;;;5048292;28;20473;-79
2023/02/25 10:59:22;;;;;;;13.43;2.90;;;8.60;64.50;;;;;;5031117;28;20029;-82
2023/02/25 11:01:48;;;;;;;19.83;3.70;;;8.40;64.90;;;;;;5049262;28;20064;-77
2023/02/25 11:04:22;;;;;;;12.13;4.63;;;8.10;65.90;;;;;;5051441;28;20033;-81
2023/02/25 11:06:48;;;;;;;12.57;3.17;;;7.80;69.60;;;;;;5073429;28;20052;-81
2023/02/25 11:09:17;;;;;;;14.18;2.75;;;7.20;74.50;;;;;;5040509;28;20089;-78
2023/02/25 11:11:54;;;;;;;10.77;2.50;;;6.90;77.70;;;;;;5049368;28;20490;-80
2023/02/25 11:14:27;;;;;;;14.18;2.67;;;6.80;78.70;;;;;;5031459;28;20024;-84
2023/02/25 11:17:04;;;;;;;13.27;3.10;;;6.80;78.50;;;;;;5036709;28;20086;-78
2023/02/25 11:19:34;;;;;;;17.15;4.07;;;7.00;76.80;;;;;;5050877;28;20055;-82
2023/02/25 11:22:08;;;;;;;15.43;3.15;;;7.40;76.70;;;;;;5048179;28;20048;-80
2023/02/25 11:24:36;;;;;;;17.87;4.23;;;7.70;75.60;;;;;;5037533;28;20889;-79
2023/02/25 11:27:04;;;;;;;15.20;3.22;;;7.80;73.40;;;;;;5045223;28;20775;-81
2023/02/25 11:29:41;;;;;;;12.73;3.22;;;8.00;73.40;;;;;;5043870;28;20146;-81
2023/02/25 11:32:11;;;;;;;13.57;2.95;;;8.20;71.80;;;;;;5023248;28;20087;-79
2023/02/25 11:35:03;;;;;;;17.50;2.72;;;8.20;71.50;;;;;;5046890;28;20025;-81
2023/02/25 11:37:39;;;;;;;14.50;3.15;;;8.50;72.20;;;;;;5044887;28;20045;-79
2023/02/25 11:40:20;;;;;;;16.83;3.70;;;8.80;72.30;;;;;;5031394;28;20651;-80
2023/02/25 11:43:04;;;;;;;14.68;3.45;;;8.80;70.30;;;;;;5047753;28;20052;-82
2023/02/25 11:45:33;;;;;;;18.38;4.00;;;8.80;70.00;;;;;;5047401;28;20143;-82
2023/02/25 11:48:01;;;;;;;18.45;3.60;;;8.80;70.10;;;;;;5049330;28;20033;-81
2023/02/25 11:50:44;;;;;;;12.95;2.72;;;8.80;69.70;;;;;;5047347;28;20036;-81
2023/02/25 11:53:12;;;;;;;9.48;2.67;;;8.90;68.40;;;;;;5057797;28;20032;-80
2023/02/25 11:56:04;;;;;;;11.40;2.75;;;8.80;69.00;;;;;;5045397;28;20493;-83
2023/02/25 11:58:36;;;;;;;10.98;2.67;;;8.70;68.40;;;;;;5046686;28;20033;-76
2023/02/25 12:01:46;;;;;;;13.32;2.97;;;8.40;68.70;;;;;;5042485;28;20652;-78
2023/02/25 12:04:22;;;;;;;11.73;3.08;;;8.30;71.00;;;;;;5042727;28;20061;-78
2023/02/25 12:07:17;;;;;;;13.10;3.17;;;8.60;70.20;;;;;;5056115;28;20044;-82
2023/02/25 12:09:57;;;;;;;16.52;2.92;;;8.60;69.30;;;;;;5028567;28;20045;-81
2023/02/25 12:12:47;;;;;;;13.38;2.90;;;8.40;69.20;;;;;;5047195;28;20486;-78
2023/02/25 12:15:50;;;;;;;15.98;3.20;;;8.40;69.20;;;;;;5050706;28;20075;-81
2023/02/25 12:18:53;;;;;;;15.27;3.03;;;8.40;69.90;;;;;;5048953;28;20107;-80
2023/02/25 12:22:03;;;;;;;21.02;3.33;;;8.70;69.30;;;;;;5041657;28;20045;-81
2023/02/25 12:24:31;;;;;;;15.05;2.70;;;8.40;69.80;;;;;;5048062;28;20099;-86
2023/02/25 12:27:15;;;;;;;17.00;4.05;;;8.30;68.90;;;;;;5038475;28;20041;-81
2023/02/25 12:30:12;;;;;;;17.13;3.10;;;8.10;68.80;;;;;;5046237;28;20953;-82
2023/02/25 12:32:51;;;;;;;14.65;3.85;;;8.10;69.20;;;;;;5040203;28;20038;-84
2023/02/25 12:35:23;;;;;;;17.30;4.00;;;7.90;69.30;;;;;;5045960;28;20146;-80
2023/02/25 12:38:27;;;;;;;19.27;6.25;;;7.80;69.40;;;;;;5047167;28;20047;-81
2023/02/25 12:41:05;;;;;;;16.95;4.95;;;8.10;68.50;;;;;;5043187;28;20095;-81
2023/02/25 12:43:45;;;;;;;15.35;4.18;;;8.20;66.50;;;;;;5050801;28;20082;-78
2023/02/25 12:46:25;;;;;;;19.48;3.67;;;8.50;65.10;;;;;;5040817;28;20384;-79
2023/02/25 12:49:22;;;;;;;10.13;2.50;;;8.80;65.40;;;;;;5029537;28;20043;-79
2023/02/25 12:51:57;;;;;;;12.90;2.67;;;9.00;65.10;;;;;;5049659;28;20543;-83
2023/02/25 12:54:29;;;;;;;;;;;8.60;62.40;;;;;;5050241;28;20021;-81
2023/02/25 12:57:35;;;;;;;13.77;2.95;;;8.50;62.80;;;;;;5044998;28;21005;-80
2023/02/25 13:00:25;;;;;;;12.70;3.83;;;8.70;63.90;;;;;;5028088;28;20354;-82
2023/02/25 13:03:27;;;;;;;11.32;2.80;;;8.80;60.50;;;;;;5042178;28;20560;-79
2023/02/25 13:06:20;;;;;;;13.57;3.40;;;8.60;60.30;;;;;;5033387;28;20119;-80
2023/02/25 13:09:18;;;;;;;14.02;3.22;;;8.60;61.00;;;;;;5029767;28;20104;-72
2023/02/25 13:12:13;;;;;;;15.02;3.05;;;8.60;60.10;;;;;;5044977;28;20045;-82
2023/02/25 13:14:48;;;;;;;13.68;3.05;;;8.80;60.40;;;;;;5046735;28;20036;-83